73753 URMM-URMM
Flight info
| Callsign | 73753 |
|---|---|
| Flight time | 0h 45m |
| Altitude | 3000 |
| Route | RA/A030 |
| Aircraft | A320/M-SDFGY/C |
Departure
| Time | 2026-04-21 17:18 |
|---|---|
| Airport | Mineralnye Vody Airport (URMM) |
Arrival
| Time | 2026-04-21 18:03 |
|---|---|
| Airport | Mineralnye Vody Airport (URMM) |
| Time | Latitude | Longitude | Altitude | Speed | Heading |
|---|---|---|---|---|---|
| 2026-04-21 17:07 | 44.21942 | 43.08812 | 1051 ft | 0 kts | 125° |
| 2026-04-21 17:09 | 44.21924 | 43.08848 | 1052 ft | 13 kts | 122° |
| 2026-04-21 17:09 | 44.21869 | 43.08975 | 1051 ft | 16 kts | 121° |
| 2026-04-21 17:09 | 44.21902 | 43.09097 | 1051 ft | 16 kts | 32° |
| 2026-04-21 17:10 | 44.22006 | 43.09105 | 1051 ft | 16 kts | 332° |
| 2026-04-21 17:10 | 44.22098 | 43.09037 | 1052 ft | 14 kts | 331° |
| 2026-04-21 17:10 | 44.22176 | 43.08979 | 1053 ft | 12 kts | 331° |
| 2026-04-21 17:10 | 44.22197 | 43.08962 | 1053 ft | 0 kts | 331° |
| 2026-04-21 17:11 | 44.22238 | 43.08931 | 1053 ft | 17 kts | 333° |
| 2026-04-21 17:11 | 44.22279 | 43.08902 | 1053 ft | 6 kts | 332° |
| 2026-04-21 17:11 | 44.22321 | 43.08871 | 1052 ft | 11 kts | 332° |
| 2026-04-21 17:12 | 44.22417 | 43.08795 | 1053 ft | 17 kts | 324° |
| 2026-04-21 17:12 | 44.22494 | 43.08698 | 1056 ft | 14 kts | 313° |
| 2026-04-21 17:12 | 44.22547 | 43.08590 | 1054 ft | 14 kts | 301° |
| 2026-04-21 17:12 | 44.22605 | 43.08464 | 1055 ft | 15 kts | 303° |
| 2026-04-21 17:13 | 44.22659 | 43.08347 | 1052 ft | 15 kts | 302° |
| 2026-04-21 17:13 | 44.22714 | 43.08224 | 1050 ft | 14 kts | 303° |
| 2026-04-21 17:13 | 44.22764 | 43.08115 | 1050 ft | 13 kts | 302° |
| 2026-04-21 17:13 | 44.22809 | 43.08013 | 1049 ft | 12 kts | 301° |
| 2026-04-21 17:14 | 44.22852 | 43.07919 | 1049 ft | 10 kts | 304° |
| 2026-04-21 17:14 | 44.22901 | 43.07818 | 1051 ft | 16 kts | 302° |
| 2026-04-21 17:14 | 44.22977 | 43.07651 | 1051 ft | 24 kts | 303° |
| 2026-04-21 17:14 | 44.23079 | 43.07432 | 1051 ft | 31 kts | 301° |
| 2026-04-21 17:15 | 44.23203 | 43.07143 | 1047 ft | 38 kts | 301° |
| 2026-04-21 17:15 | 44.23352 | 43.06810 | 1047 ft | 41 kts | 303° |
| 2026-04-21 17:15 | 44.23487 | 43.06518 | 1051 ft | 34 kts | 303° |
| 2026-04-21 17:15 | 44.23573 | 43.06341 | 1052 ft | 5 kts | 319° |
| 2026-04-21 17:16 | 44.23601 | 43.06310 | 1052 ft | 4 kts | 298° |
| 2026-04-21 17:16 | 44.23583 | 43.06296 | 1051 ft | 3 kts | 163° |
| 2026-04-21 17:16 | 44.23563 | 43.06356 | 1051 ft | 12 kts | 120° |
| 2026-04-21 17:16 | 44.23553 | 43.06378 | 1052 ft | 0 kts | 123° |
| 2026-04-21 17:17 | 44.23547 | 43.06390 | 1051 ft | 8 kts | 123° |
| 2026-04-21 17:17 | 44.23395 | 43.06727 | 1048 ft | 79 kts | 122° |
| 2026-04-21 17:17 | 44.22985 | 43.07632 | 1051 ft | 138 kts | 122° |
| 2026-04-21 17:17 | 44.22390 | 43.08920 | 1286 ft | 165 kts | 122° |
| 2026-04-21 17:18 | 44.21778 | 43.10253 | 2062 ft | 162 kts | 123° |
| 2026-04-21 17:18 | 44.21149 | 43.11594 | 2591 ft | 172 kts | 122° |
| 2026-04-21 17:18 | 44.20460 | 43.13094 | 2896 ft | 199 kts | 122° |
| 2026-04-21 17:18 | 44.19691 | 43.14828 | 2883 ft | 219 kts | 118° |
| 2026-04-21 17:19 | 44.19132 | 43.16827 | 2915 ft | 223 kts | 100° |
| 2026-04-21 17:19 | 44.19145 | 43.18970 | 3000 ft | 222 kts | 72° |
| 2026-04-21 17:19 | 44.19930 | 43.20776 | 3020 ft | 218 kts | 38° |
| 2026-04-21 17:19 | 44.21155 | 43.22022 | 3011 ft | 218 kts | 32° |
| 2026-04-21 17:20 | 44.22511 | 43.22847 | 3011 ft | 214 kts | 5° |
| 2026-04-21 17:20 | 44.23947 | 43.22650 | 3000 ft | 210 kts | 338° |
| 2026-04-21 17:20 | 44.25130 | 43.21504 | 3041 ft | 209 kts | 309° |
| 2026-04-21 17:20 | 44.25887 | 43.19773 | 3098 ft | 209 kts | 299° |
| 2026-04-21 17:21 | 44.26639 | 43.18028 | 3072 ft | 210 kts | 301° |
| 2026-04-21 17:21 | 44.27385 | 43.16268 | 3043 ft | 210 kts | 299° |
| 2026-04-21 17:21 | 44.28092 | 43.14493 | 3009 ft | 209 kts | 299° |
| 2026-04-21 17:21 | 44.28849 | 43.12760 | 3005 ft | 209 kts | 301° |
| 2026-04-21 17:22 | 44.29348 | 43.11610 | 3014 ft | 209 kts | 301° |
| 2026-04-21 17:22 | 44.30375 | 43.09302 | 3015 ft | 210 kts | 302° |
| 2026-04-21 17:22 | 44.31168 | 43.07587 | 3032 ft | 210 kts | 302° |
| 2026-04-21 17:22 | 44.31913 | 43.05830 | 3045 ft | 210 kts | 300° |
| 2026-04-21 17:23 | 44.32473 | 43.03960 | 3016 ft | 210 kts | 277° |
| 2026-04-21 17:23 | 44.32282 | 43.01956 | 2994 ft | 213 kts | 248° |
| 2026-04-21 17:23 | 44.31382 | 43.00339 | 2806 ft | 212 kts | 219° |
| 2026-04-21 17:23 | 44.30148 | 42.99244 | 2647 ft | 207 kts | 212° |
| 2026-04-21 17:24 | 44.28891 | 42.98373 | 2475 ft | 198 kts | 196° |
| 2026-04-21 17:24 | 44.27628 | 42.98487 | 2436 ft | 177 kts | 156° |
| 2026-04-21 17:24 | 44.26700 | 42.99477 | 2321 ft | 163 kts | 130° |
| 2026-04-21 17:24 | 44.26086 | 43.00775 | 2116 ft | 152 kts | 120° |
| 2026-04-21 17:25 | 44.25548 | 43.01975 | 1897 ft | 140 kts | 124° |
| 2026-04-21 17:25 | 44.25044 | 43.03105 | 1687 ft | 134 kts | 121° |
| 2026-04-21 17:25 | 44.24542 | 43.04199 | 1466 ft | 134 kts | 122° |
| 2026-04-21 17:25 | 44.24047 | 43.05293 | 1273 ft | 134 kts | 122° |
| 2026-04-21 17:26 | 44.23555 | 43.06376 | 1077 ft | 133 kts | 122° |
| 2026-04-21 17:26 | 44.23100 | 43.07388 | 1050 ft | 122 kts | 122° |
| 2026-04-21 17:26 | 44.22522 | 43.08639 | 1281 ft | 169 kts | 122° |
| 2026-04-21 17:26 | 44.21897 | 43.09969 | 2271 ft | 163 kts | 123° |
| 2026-04-21 17:27 | 44.21268 | 43.11337 | 2777 ft | 175 kts | 122° |
| 2026-04-21 17:27 | 44.20573 | 43.12960 | 2891 ft | 212 kts | 111° |
| 2026-04-21 17:27 | 44.20326 | 43.15028 | 3040 ft | 221 kts | 84° |
| 2026-04-21 17:27 | 44.20761 | 43.17077 | 3050 ft | 220 kts | 58° |
| 2026-04-21 17:28 | 44.21739 | 43.18583 | 2977 ft | 207 kts | 35° |
| 2026-04-21 17:28 | 44.22900 | 43.19698 | 2959 ft | 200 kts | 30° |
| 2026-04-21 17:28 | 44.23693 | 43.20391 | 2998 ft | 198 kts | 30° |
| 2026-04-21 17:28 | 44.25372 | 43.21177 | 3059 ft | 193 kts | 351° |
| 2026-04-21 17:29 | 44.26198 | 43.20776 | 3062 ft | 190 kts | 324° |
| 2026-04-21 17:29 | 44.27039 | 43.19383 | 3077 ft | 189 kts | 304° |
| 2026-04-21 17:29 | 44.27725 | 43.17812 | 3084 ft | 190 kts | 299° |
| 2026-04-21 17:29 | 44.28403 | 43.16226 | 3055 ft | 191 kts | 300° |
| 2026-04-21 17:30 | 44.29086 | 43.14633 | 3035 ft | 190 kts | 300° |
| 2026-04-21 17:30 | 44.29764 | 43.13039 | 3009 ft | 191 kts | 300° |
| 2026-04-21 17:30 | 44.30424 | 43.11436 | 2975 ft | 191 kts | 298° |
| 2026-04-21 17:30 | 44.31063 | 43.09808 | 2963 ft | 191 kts | 297° |
| 2026-04-21 17:31 | 44.31490 | 43.08108 | 2979 ft | 190 kts | 270° |
| 2026-04-21 17:31 | 44.31191 | 43.06333 | 2998 ft | 190 kts | 246° |
| 2026-04-21 17:31 | 44.31100 | 43.04540 | 2938 ft | 189 kts | 291° |
| 2026-04-21 17:31 | 44.31735 | 43.02927 | 2956 ft | 190 kts | 299° |
| 2026-04-21 17:32 | 44.32436 | 43.01338 | 3006 ft | 191 kts | 302° |
| 2026-04-21 17:32 | 44.32776 | 42.99609 | 3036 ft | 191 kts | 266° |
| 2026-04-21 17:32 | 44.32347 | 42.97874 | 2984 ft | 191 kts | 234° |
| 2026-04-21 17:32 | 44.31341 | 42.96676 | 2946 ft | 192 kts | 207° |
| 2026-04-21 17:33 | 44.30126 | 42.95896 | 2910 ft | 192 kts | 198° |
| 2026-04-21 17:33 | 44.28871 | 42.95868 | 2914 ft | 172 kts | 160° |
| 2026-04-21 17:33 | 44.27950 | 42.96817 | 2763 ft | 163 kts | 129° |
| 2026-04-21 17:33 | 44.27344 | 42.98118 | 2474 ft | 162 kts | 118° |
| 2026-04-21 17:34 | 44.26776 | 42.99450 | 2213 ft | 157 kts | 125° |
| 2026-04-21 17:34 | 44.26171 | 43.00644 | 2084 ft | 144 kts | 125° |
| 2026-04-21 17:34 | 44.25641 | 43.01785 | 1915 ft | 136 kts | 123° |
| 2026-04-21 17:34 | 44.25145 | 43.02894 | 1746 ft | 134 kts | 123° |
| 2026-04-21 17:35 | 44.24641 | 43.03976 | 1565 ft | 133 kts | 122° |
| 2026-04-21 17:35 | 44.24151 | 43.05069 | 1354 ft | 133 kts | 123° |
| 2026-04-21 17:35 | 44.23650 | 43.06165 | 1107 ft | 133 kts | 122° |
| 2026-04-21 17:35 | 44.23186 | 43.07186 | 1051 ft | 115 kts | 122° |
| 2026-04-21 17:36 | 44.22734 | 43.08190 | 1056 ft | 151 kts | 122° |
| 2026-04-21 17:36 | 44.22141 | 43.09479 | 1855 ft | 157 kts | 123° |
| 2026-04-21 17:36 | 44.21545 | 43.10770 | 2593 ft | 161 kts | 123° |
| 2026-04-21 17:36 | 44.20936 | 43.12127 | 3079 ft | 175 kts | 122° |
| 2026-04-21 17:37 | 44.20360 | 43.13750 | 3035 ft | 194 kts | 101° |
| 2026-04-21 17:37 | 44.20419 | 43.15620 | 3048 ft | 197 kts | 72° |
| 2026-04-21 17:37 | 44.21118 | 43.17246 | 3035 ft | 198 kts | 44° |
| 2026-04-21 17:37 | 44.22214 | 43.18392 | 3014 ft | 198 kts | 34° |
| 2026-04-21 17:38 | 44.23350 | 43.19440 | 2995 ft | 198 kts | 30° |
| 2026-04-21 17:38 | 44.24541 | 43.20402 | 2980 ft | 198 kts | 26° |
| 2026-04-21 17:38 | 44.25872 | 43.20627 | 2989 ft | 197 kts | 343° |
| 2026-04-21 17:38 | 44.26965 | 43.19568 | 2966 ft | 194 kts | 305° |
| 2026-04-21 17:39 | 44.27748 | 43.18040 | 2986 ft | 194 kts | 304° |
| 2026-04-21 17:39 | 44.28527 | 43.16498 | 3049 ft | 194 kts | 304° |
| 2026-04-21 17:39 | 44.29245 | 43.14901 | 3109 ft | 194 kts | 298° |
| 2026-04-21 17:39 | 44.29959 | 43.13299 | 3158 ft | 195 kts | 301° |
| 2026-04-21 17:40 | 44.30685 | 43.11702 | 3183 ft | 195 kts | 301° |
| 2026-04-21 17:40 | 44.31426 | 43.10125 | 3163 ft | 194 kts | 303° |
| 2026-04-21 17:40 | 44.32211 | 43.08579 | 3142 ft | 195 kts | 304° |
| 2026-04-21 17:40 | 44.32982 | 43.07018 | 3114 ft | 196 kts | 303° |
| 2026-04-21 17:41 | 44.33662 | 43.05381 | 3087 ft | 194 kts | 287° |
| 2026-04-21 17:41 | 44.33721 | 43.03567 | 3063 ft | 191 kts | 253° |
| 2026-04-21 17:41 | 44.33023 | 43.02026 | 3045 ft | 189 kts | 219° |
| 2026-04-21 17:41 | 44.31917 | 43.01029 | 3019 ft | 190 kts | 210° |
| 2026-04-21 17:42 | 44.30790 | 43.00070 | 2889 ft | 190 kts | 211° |
| 2026-04-21 17:42 | 44.29673 | 42.99088 | 2764 ft | 189 kts | 210° |
| 2026-04-21 17:42 | 44.28504 | 42.98551 | 2655 ft | 169 kts | 176° |
| 2026-04-21 17:42 | 44.27458 | 42.99086 | 2522 ft | 155 kts | 148° |
| 2026-04-21 17:43 | 44.26649 | 43.00004 | 2396 ft | 146 kts | 135° |
| 2026-04-21 17:43 | 44.25994 | 43.01074 | 2134 ft | 144 kts | 128° |
| 2026-04-21 17:43 | 44.25452 | 43.02202 | 1884 ft | 136 kts | 122° |
| 2026-04-21 17:43 | 44.24958 | 43.03305 | 1691 ft | 133 kts | 122° |
| 2026-04-21 17:44 | 44.24463 | 43.04390 | 1449 ft | 132 kts | 122° |
| 2026-04-21 17:44 | 44.23972 | 43.05463 | 1258 ft | 133 kts | 122° |
| 2026-04-21 17:44 | 44.23474 | 43.06551 | 1061 ft | 130 kts | 122° |
| 2026-04-21 17:44 | 44.23028 | 43.07541 | 1054 ft | 127 kts | 123° |
| 2026-04-21 17:45 | 44.22440 | 43.08810 | 1382 ft | 168 kts | 122° |
| 2026-04-21 17:45 | 44.21823 | 43.10182 | 2423 ft | 164 kts | 122° |
| 2026-04-21 17:45 | 44.21220 | 43.11602 | 2890 ft | 180 kts | 114° |
| 2026-04-21 17:45 | 44.21013 | 43.13422 | 3033 ft | 208 kts | 86° |
| 2026-04-21 17:46 | 44.21518 | 43.15353 | 2964 ft | 217 kts | 54° |
| 2026-04-21 17:46 | 44.22672 | 43.16725 | 2952 ft | 220 kts | 33° |
| 2026-04-21 17:46 | 44.23971 | 43.17871 | 2967 ft | 221 kts | 34° |
| 2026-04-21 17:46 | 44.25283 | 43.19004 | 2974 ft | 221 kts | 30° |
| 2026-04-21 17:47 | 44.26743 | 43.19604 | 2981 ft | 221 kts | 358° |
| 2026-04-21 17:47 | 44.28205 | 43.19015 | 2993 ft | 221 kts | 325° |
| 2026-04-21 17:47 | 44.29276 | 43.17535 | 3038 ft | 220 kts | 302° |
| 2026-04-21 17:47 | 44.29908 | 43.15614 | 3080 ft | 218 kts | 287° |
| 2026-04-21 17:48 | 44.30261 | 43.14269 | 3105 ft | 219 kts | 293° |
| 2026-04-21 17:48 | 44.31289 | 43.11828 | 3099 ft | 220 kts | 299° |
| 2026-04-21 17:48 | 44.32105 | 43.10014 | 3032 ft | 219 kts | 302° |
| 2026-04-21 17:48 | 44.32930 | 43.08218 | 3056 ft | 220 kts | 300° |
| 2026-04-21 17:49 | 44.33723 | 43.06391 | 3086 ft | 220 kts | 298° |
| 2026-04-21 17:49 | 44.34185 | 43.04387 | 3095 ft | 218 kts | 271° |
| 2026-04-21 17:49 | 44.33956 | 43.02346 | 2965 ft | 212 kts | 244° |
| 2026-04-21 17:49 | 44.33106 | 43.00738 | 2838 ft | 208 kts | 217° |
| 2026-04-21 17:50 | 44.31927 | 42.99607 | 2730 ft | 200 kts | 212° |
| 2026-04-21 17:50 | 44.30800 | 42.98616 | 2732 ft | 179 kts | 208° |
| 2026-04-21 17:50 | 44.29764 | 42.97886 | 2690 ft | 156 kts | 198° |
| 2026-04-21 17:50 | 44.28734 | 42.97775 | 2679 ft | 145 kts | 169° |
| 2026-04-21 17:51 | 44.27835 | 42.98285 | 2606 ft | 137 kts | 148° |
| 2026-04-21 17:51 | 44.27079 | 42.99081 | 2450 ft | 135 kts | 137° |
| 2026-04-21 17:51 | 44.26455 | 43.00067 | 2275 ft | 136 kts | 126° |
| 2026-04-21 17:51 | 44.25930 | 43.01137 | 2115 ft | 136 kts | 124° |
| 2026-04-21 17:52 | 44.25429 | 43.02266 | 1895 ft | 136 kts | 121° |
| 2026-04-21 17:52 | 44.24928 | 43.03374 | 1693 ft | 133 kts | 122° |
| 2026-04-21 17:52 | 44.24425 | 43.04468 | 1463 ft | 134 kts | 122° |
| 2026-04-21 17:52 | 44.23919 | 43.05576 | 1213 ft | 137 kts | 122° |
| 2026-04-21 17:53 | 44.23426 | 43.06663 | 1056 ft | 127 kts | 122° |
| 2026-04-21 17:53 | 44.23001 | 43.07610 | 1052 ft | 104 kts | 122° |
| 2026-04-21 17:53 | 44.22527 | 43.08649 | 1078 ft | 160 kts | 122° |
| 2026-04-21 17:53 | 44.21922 | 43.09955 | 1992 ft | 160 kts | 123° |
| 2026-04-21 17:54 | 44.21352 | 43.11252 | 2805 ft | 160 kts | 123° |
| 2026-04-21 17:54 | 44.20732 | 43.12720 | 2998 ft | 194 kts | 122° |
| 2026-04-21 17:54 | 44.20284 | 43.14567 | 3043 ft | 210 kts | 92° |
| 2026-04-21 17:54 | 44.20684 | 43.16523 | 3041 ft | 216 kts | 56° |
| 2026-04-21 17:55 | 44.21793 | 43.17953 | 3039 ft | 220 kts | 36° |
| 2026-04-21 17:55 | 44.23076 | 43.19122 | 3035 ft | 221 kts | 33° |
| 2026-04-21 17:55 | 44.24389 | 43.20254 | 3037 ft | 221 kts | 33° |
| 2026-04-21 17:55 | 44.25698 | 43.21370 | 3037 ft | 221 kts | 33° |
| 2026-04-21 17:56 | 44.27164 | 43.21842 | 3016 ft | 221 kts | 347° |
| 2026-04-21 17:56 | 44.28428 | 43.20697 | 3064 ft | 222 kts | 307° |
| 2026-04-21 17:56 | 44.29327 | 43.18944 | 3043 ft | 222 kts | 302° |
| 2026-04-21 17:56 | 44.30148 | 43.17154 | 3036 ft | 222 kts | 299° |
| 2026-04-21 17:57 | 44.30955 | 43.15309 | 3034 ft | 222 kts | 300° |
| 2026-04-21 17:57 | 44.31766 | 43.13476 | 3036 ft | 222 kts | 300° |
| 2026-04-21 17:57 | 44.32576 | 43.11640 | 3037 ft | 222 kts | 300° |
| 2026-04-21 17:57 | 44.33390 | 43.09800 | 3033 ft | 223 kts | 300° |
| 2026-04-21 17:58 | 44.34205 | 43.07965 | 3027 ft | 222 kts | 300° |
| 2026-04-21 17:58 | 44.35017 | 43.06126 | 3033 ft | 223 kts | 300° |
| 2026-04-21 17:58 | 44.35562 | 43.04136 | 3036 ft | 218 kts | 271° |
| 2026-04-21 17:58 | 44.35269 | 43.02199 | 3026 ft | 199 kts | 234° |
| 2026-04-21 17:59 | 44.34380 | 43.00781 | 3015 ft | 191 kts | 220° |
| 2026-04-21 17:59 | 44.33395 | 42.99546 | 3024 ft | 190 kts | 218° |
| 2026-04-21 17:59 | 44.32381 | 42.98372 | 3040 ft | 188 kts | 213° |
| 2026-04-21 17:59 | 44.31296 | 42.97352 | 3032 ft | 188 kts | 210° |
| 2026-04-21 18:00 | 44.30169 | 42.96472 | 3047 ft | 178 kts | 204° |
| 2026-04-21 18:00 | 44.29092 | 42.95965 | 3013 ft | 154 kts | 183° |
| 2026-04-21 18:00 | 44.28109 | 42.96299 | 2826 ft | 145 kts | 140° |
| 2026-04-21 18:00 | 44.27555 | 42.97436 | 2628 ft | 141 kts | 120° |
| 2026-04-21 18:01 | 44.27090 | 42.98628 | 2453 ft | 140 kts | 122° |
| 2026-04-21 18:01 | 44.26604 | 42.99758 | 2394 ft | 131 kts | 123° |
| 2026-04-21 18:01 | 44.26099 | 43.00818 | 2099 ft | 131 kts | 126° |
| 2026-04-21 18:01 | 44.25601 | 43.01854 | 1898 ft | 126 kts | 123° |
| 2026-04-21 18:02 | 44.25129 | 43.02900 | 1601 ft | 129 kts | 121° |
| 2026-04-21 18:02 | 44.24663 | 43.03956 | 1485 ft | 132 kts | 122° |
| 2026-04-21 18:02 | 44.24160 | 43.05054 | 1347 ft | 139 kts | 121° |
| 2026-04-21 18:02 | 44.23650 | 43.06178 | 1114 ft | 133 kts | 123° |
| 2026-04-21 18:03 | 44.23179 | 43.07196 | 1051 ft | 113 kts | 121° |
| 2026-04-21 18:03 | 44.22827 | 43.08003 | 1049 ft | 86 kts | 120° |
| 2026-04-21 18:03 | 44.22553 | 43.08600 | 1056 ft | 53 kts | 123° |
| 2026-04-21 18:03 | 44.22487 | 43.08723 | 1055 ft | 2 kts | 147° |
| 2026-04-21 18:04 | 44.22349 | 43.08853 | 1052 ft | 44 kts | 151° |
| 2026-04-21 18:04 | 44.22187 | 43.08969 | 1053 ft | 17 kts | 153° |